DW8953 Weather Reports


time (UTC)temp
F
wind
direction
speed
knots
gust
knots
rain 1hr
in
rain 24hr
in
rain mn
in
humidity
%
barometer
mb
20211017154555 62 0 0.0 0.0 0.00 0.08 0.02 58 1025.6
20211017153139 61 0 0.0 0.0 0.00 0.08 0.02 57 1025.7
20211017151639 59 0 0.0 0.0 0.00 0.08 0.02 62 1025.5
20211017150126 58 0 0.0 0.0 0.00 0.08 0.02 66 1025.5
20211017144617 56 0 0.0 0.0 0.00 0.09 0.02 69 1025.5
20211017143109 56 0 0.0 0.0 0.00 0.09 0.02 74 1025.4
20211017141617 54 0 0.0 0.0 0.00 0.09 0.02 79 1025.3
20211017140106 52 0 0.0 0.0 0.00 0.09 0.02 83 1025.3
20211017134707 50 0 0.0 0.0 0.00 0.09 0.02 89 1025.2
20211017133059 48 0 0.0 0.0 0.00 0.09 0.02 97 1025.3
20211017131615 46 0 0.0 0.0 0.00 0.09 0.02 98 1025.2
20211017130105 43 0 0.0 0.0 0.01 0.09 0.02 98 1025.0
20211017124619 40 0 0.0 0.0 0.01 0.10 0.02 96 1024.9
20211017123109 39 0 0.0 0.0 0.01 0.10 0.02 96 1024.8
20211017121720 39 0 0.0 0.0 0.01 0.10 0.02 95 1024.9
20211017120109 39 0 0.0 0.0 0.00 0.09 0.01 95 1024.7
20211017114648 39 0 0.0 0.0 0.00 0.09 0.01 95 1024.7
20211017113136 40 0 0.0 0.0 0.00 0.09 0.01 95 1024.5
20211017111622 40 0 0.0 0.0 0.00 0.09 0.01 95 1024.5
20211017110202 41 0 0.0 0.0 0.00 0.09 0.01 95 1024.4
20211017104556 41 0 0.0 0.0 0.00 0.10 0.01 95 1024.4
20211017103114 41 0 0.0 0.0 0.00 0.10 0.01 95 1024.3
20211017101628 42 0 0.0 0.0 0.00 0.10 0.01 96 1024.2
20211017100313 42 0 0.0 0.0 0.00 0.10 0.01 95 1024.1
20211017094628 42 0 0.0 0.0 0.00 0.11 0.01 95 1024.0
20211017093102 42 0 0.0 0.0 0.00 0.11 0.01 95 1024.1
20211017091554 42 0 0.0 0.0 0.00 0.11 0.01 94 1024.1
20211017090133 42 0 0.0 0.0 0.00 0.11 0.01 94 1024.1
20211017084606 42 0 0.0 0.0 0.00 0.12 0.01 94 1024.1
20211017083119 42 0 0.0 0.0 0.00 0.12 0.01 94 1024.0
20211017081616 42 0 0.0 0.0 0.00 0.12 0.01 93 1023.9
20211017080223 43 0 0.0 0.0 0.00 0.12 0.01 93 1024.0
20211017074605 43 0 0.0 0.0 0.00 0.13 0.01 93 1024.0
20211017073125 43 0 0.0 0.0 0.01 0.13 0.01 93 1023.9
20211017071601 44 0 0.0 0.0 0.01 0.13 0.01 93 1024.1
20211017070118 44 0 0.0 0.0 0.01 0.13 0.01 93 1024.0
20211017064618 44 0 0.0 0.0 0.01 0.14 0.01 93 1023.8
20211017063109 45 0 0.0 0.0 0.00 0.13 0.00 94 1023.8
20211017061811 45 0 0.0 0.0 0.00 0.13 0.00 94 1023.7
20211017060105 44 0 0.0 0.0 0.00 0.13 0.00 94 1023.5
20211017054625 43 0 0.0 0.0 0.00 0.15 0.00 92 1023.5
20211017053121 43 0 0.0 0.0 0.00 0.15 0.00 92 1023.2
20211017051645 44 0 0.0 0.0 0.00 0.15 0.00 92 1023.3
20211017050119 44 0 0.0 0.0 0.00 0.15 0.00 91 1023.4
20211017044628 44 0 0.0 0.0 0.00 0.16 0.15 92 1023.3
20211017043130 44 0 0.0 0.0 0.00 0.16 0.15 91 1023.4
20211017041644 45 0 0.0 0.0 0.00 0.16 0.15 90 1023.4
20211017040204 45 0 0.0 0.0 0.00 0.16 0.15 90 1023.4
20211017034627 45 0 0.0 0.0 0.00 0.18 0.15 89 1023.3
20211017033142 46 0 0.0 0.0 0.00 0.18 0.15 88 1023.2
20211017031624 46 0 0.0 0.0 0.00 0.18 0.15 88 1023.1
20211017030116 46 0 0.0 0.0 0.01 0.18 0.15 86 1023.2
20211017024634 47 0 0.0 0.0 0.01 0.20 0.15 85 1022.9
20211017023131 48 0 0.0 0.0 0.01 0.20 0.15 84 1022.9
20211017021633 48 0 0.0 0.0 0.01 0.20 0.15 82 1022.9
20211017020135 49 0 0.0 0.0 0.00 0.19 0.14 81 1022.7
20211017014746 50 0 0.0 0.0 0.00 0.20 0.14 80 1022.7
20211017013120 51 0 0.0 0.0 0.00 0.20 0.14 77 1022.8
20211017011629 52 0 0.0 0.0 0.00 0.20 0.14 74 1022.6
20211017010125 53 0 0.0 0.0 0.00 0.20 0.14 72 1022.4
20211017004635 53 0 0.0 0.0 0.00 0.21 0.14 71 1022.2
20211017003103 53 0 0.0 0.0 0.00 0.21 0.14 71 1022.1
20211017001806 54 0 0.0 0.0 0.00 0.21 0.14 70 1022.2
20211017000059 55 0 0.0 0.0 0.00 0.21 0.14 68 1022.0
20211016234608 56 0 0.0 1.7 0.00 0.21 0.14 65 1021.7
20211016233050 58 0 0.0 1.7 0.01 0.21 0.14 61 1021.6
20211016231603 59 0 0.0 1.7 0.01 0.21 0.14 59 1021.4
20211016230056 60 305 0.9 5.2 0.01 0.21 0.14 53 1021.3
20211016224634 61 276 0.0 3.5 0.01 0.21 0.14 52 1021.2
20211016223116 61 0 1.7 8.7 0.00 0.20 0.13 48 1021.2
20211016221550 62 300 2.6 7.8 0.00 0.20 0.13 47 1021.2
20211016220109 62 286 2.6 7.8 0.00 0.20 0.13 46 1021.1
20211016214629 63 320 3.5 8.7 0.00 0.20 0.13 44 1021.1
20211016213149 64 285 1.7 7.8 0.01 0.20 0.13 46 1020.9
20211016211558 64 309 3.5 10.4 0.01 0.20 0.13 42 1020.7
20211016210123 65 0 1.7 8.7 0.01 0.20 0.13 42 1020.7
20211016204622 66 0 2.6 9.6 0.01 0.20 0.13 41 1020.8
20211016203105 66 5 1.7 12.2 0.00 0.19 0.12 43 1020.9
20211016201556 66 355 3.5 7.8 0.00 0.19 0.12 45 1020.9
20211016200145 66 325 2.6 10.4 0.00 0.19 0.12 40 1021.0
20211016194617 66 355 3.5 10.4 0.01 0.19 0.12 41 1020.7
20211016193047 66 319 3.5 10.4 0.01 0.19 0.12 41 1020.7
20211016191622 66 292 4.3 12.2 0.01 0.19 0.12 42 1020.8
20211016190117 66 93 1.7 8.7 0.01 0.19 0.12 45 1020.8
20211016184559 65 350 3.5 13.0 0.00 0.19 0.11 45 1021.0
20211016183134 65 292 2.6 7.8 0.00 0.19 0.11 48 1021.1
20211016181704 64 346 2.6 10.4 0.01 0.19 0.11 51 1021.4
20211016180140 64 349 2.6 9.6 0.01 0.19 0.11 47 1021.5
20211016174641 64 45 3.5 10.4 0.01 0.20 0.11 48 1021.5
20211016173122 64 309 3.5 11.3 0.01 0.20 0.11 51 1021.7
20211016171632 63 349 3.5 11.3 0.00 0.19 0.10 52 1022.0
20211016170111 63 11 3.5 12.2 0.00 0.19 0.10 52 1022.0
20211016164622 63 19 4.3 9.6 0.01 0.19 0.10 52 1022.2
20211016163119 62 360 3.5 7.8 0.01 0.19 0.10 55 1022.2
20211016161621 61 327 4.3 10.4 0.01 0.19 0.10 53 1022.3
20211016160122 60 17 2.6 10.4 0.01 0.19 0.10 59 1022.0